sensor_id;sensor_type;location;lat;lon;timestamp;pressure;altitude;pressure_sealevel;temperature;humidity
74372;BME280;62885;51.374;6.170;2022-09-09T00:04:41;100550.13;;;15.59;82.38
74372;BME280;62885;51.374;6.170;2022-09-09T00:07:18;100546.34;;;15.87;81.03
74372;BME280;62885;51.374;6.170;2022-09-09T00:09:51;100544.41;;;15.80;81.27
74372;BME280;62885;51.374;6.170;2022-09-09T00:12:33;100542.88;;;15.59;82.12
74372;BME280;62885;51.374;6.170;2022-09-09T00:15:02;100548.28;;;15.59;81.98
74372;BME280;62885;51.374;6.170;2022-09-09T00:17:36;100542.97;;;15.40;82.20
74372;BME280;62885;51.374;6.170;2022-09-09T00:20:16;100539.56;;;15.38;82.90
74372;BME280;62885;51.374;6.170;2022-09-09T00:23:05;100538.28;;;15.42;82.78
74372;BME280;62885;51.374;6.170;2022-09-09T00:28:22;100531.41;;;15.30;82.94
74372;BME280;62885;51.374;6.170;2022-09-09T00:30:49;100525.81;;;15.32;82.69
74372;BME280;62885;51.374;6.170;2022-09-09T00:33:18;100528.25;;;15.35;82.55
74372;BME280;62885;51.374;6.170;2022-09-09T00:35:49;100528.25;;;15.35;82.58
74372;BME280;62885;51.374;6.170;2022-09-09T00:38:31;100527.53;;;15.33;82.35
74372;BME280;62885;51.374;6.170;2022-09-09T00:43:46;100527.53;;;15.33;82.55
74372;BME280;62885;51.374;6.170;2022-09-09T00:46:32;100525.28;;;15.28;82.43
74372;BME280;62885;51.374;6.170;2022-09-09T00:57:51;100533.25;;;15.30;82.50
74372;BME280;62885;51.374;6.170;2022-09-09T01:00:22;100533.69;;;15.25;82.74
74372;BME280;62885;51.374;6.170;2022-09-09T01:05:53;100525.53;;;15.35;82.88
74372;BME280;62885;51.374;6.170;2022-09-09T01:10:59;100526.16;;;15.46;83.17
74372;BME280;62885;51.374;6.170;2022-09-09T01:13:29;100521.91;;;15.44;82.88
74372;BME280;62885;51.374;6.170;2022-09-09T01:15:57;100521.38;;;15.40;83.01
74372;BME280;62885;51.374;6.170;2022-09-09T01:18:26;100519.22;;;15.71;82.05
74372;BME280;62885;51.374;6.170;2022-09-09T01:21:36;100520.81;;;15.64;82.32
74372;BME280;62885;51.374;6.170;2022-09-09T01:26:43;100519.88;;;15.55;82.31
74372;BME280;62885;51.374;6.170;2022-09-09T01:29:12;100523.19;;;15.67;82.46
74372;BME280;62885;51.374;6.170;2022-09-09T01:31:42;100524.28;;;15.74;81.89
74372;BME280;62885;51.374;6.170;2022-09-09T01:34:16;100526.50;;;15.61;82.33
74372;BME280;62885;51.374;6.170;2022-09-09T01:39:09;100527.31;;;15.71;81.60
74372;BME280;62885;51.374;6.170;2022-09-09T01:41:35;100531.72;;;15.72;82.25
74372;BME280;62885;51.374;6.170;2022-09-09T01:44:01;100533.94;;;15.59;82.58
74372;BME280;62885;51.374;6.170;2022-09-09T01:46:28;100529.00;;;15.45;82.85
74372;BME280;62885;51.374;6.170;2022-09-09T01:48:54;100522.13;;;15.60;82.37
74372;BME280;62885;51.374;6.170;2022-09-09T01:51:20;100523.44;;;15.56;82.21
74372;BME280;62885;51.374;6.170;2022-09-09T01:53:46;100520.78;;;15.46;82.52
74372;BME280;62885;51.374;6.170;2022-09-09T01:58:47;100525.78;;;15.41;83.12
74372;BME280;62885;51.374;6.170;2022-09-09T02:03:53;100516.44;;;15.36;83.42
74372;BME280;62885;51.374;6.170;2022-09-09T02:09:00;100515.03;;;15.14;84.00
74372;BME280;62885;51.374;6.170;2022-09-09T02:11:28;100504.63;;;15.19;84.32
74372;BME280;62885;51.374;6.170;2022-09-09T02:13:58;100508.25;;;15.28;84.00
74372;BME280;62885;51.374;6.170;2022-09-09T02:16:32;100507.16;;;15.20;83.78
74372;BME280;62885;51.374;6.170;2022-09-09T02:19:16;100505.66;;;15.08;84.76
74372;BME280;62885;51.374;6.170;2022-09-09T02:21:44;100512.09;;;15.07;84.79
74372;BME280;62885;51.374;6.170;2022-09-09T02:24:12;100513.59;;;15.10;84.78
74372;BME280;62885;51.374;6.170;2022-09-09T02:26:42;100507.81;;;15.05;84.61
74372;BME280;62885;51.374;6.170;2022-09-09T02:29:13;100512.22;;;15.06;84.62
74372;BME280;62885;51.374;6.170;2022-09-09T02:31:41;100508.28;;;15.00;84.56
74372;BME280;62885;51.374;6.170;2022-09-09T02:34:08;100504.38;;;15.12;84.67
74372;BME280;62885;51.374;6.170;2022-09-09T02:36:36;100499.34;;;15.00;84.79
74372;BME280;62885;51.374;6.170;2022-09-09T02:39:07;100505.72;;;14.99;85.11
74372;BME280;62885;51.374;6.170;2022-09-09T02:41:34;100503.28;;;15.05;84.75
74372;BME280;62885;51.374;6.170;2022-09-09T02:44:00;100501.72;;;15.03;84.68
74372;BME280;62885;51.374;6.170;2022-09-09T02:46:50;100499.53;;;15.16;84.23
74372;BME280;62885;51.374;6.170;2022-09-09T02:49:47;100496.28;;;15.12;84.46
74372;BME280;62885;51.374;6.170;2022-09-09T02:55:23;100491.56;;;15.14;83.95
74372;BME280;62885;51.374;6.170;2022-09-09T02:57:50;100489.97;;;15.21;84.07
74372;BME280;62885;51.374;6.170;2022-09-09T03:00:23;100487.06;;;15.33;83.54
74372;BME280;62885;51.374;6.170;2022-09-09T03:02:49;100489.16;;;15.39;83.44
74372;BME280;62885;51.374;6.170;2022-09-09T03:05:15;100492.28;;;15.61;82.38
74372;BME280;62885;51.374;6.170;2022-09-09T03:07:40;100492.22;;;15.44;83.25
74372;BME280;62885;51.374;6.170;2022-09-09T03:10:06;100490.38;;;15.44;83.35
74372;BME280;62885;51.374;6.170;2022-09-09T03:12:31;100492.22;;;15.44;83.35
74372;BME280;62885;51.374;6.170;2022-09-09T03:14:58;100488.66;;;15.53;83.13
74372;BME280;62885;51.374;6.170;2022-09-09T03:17:24;100491.22;;;15.54;82.88
74372;BME280;62885;51.374;6.170;2022-09-09T03:19:49;100492.66;;;15.49;83.08
74372;BME280;62885;51.374;6.170;2022-09-09T03:22:19;100487.31;;;15.39;84.09
74372;BME280;62885;51.374;6.170;2022-09-09T03:24:45;100489.53;;;15.44;83.69
74372;BME280;62885;51.374;6.170;2022-09-09T03:27:12;100489.44;;;15.63;83.32
74372;BME280;62885;51.374;6.170;2022-09-09T03:29:39;100488.72;;;15.61;83.23
74372;BME280;62885;51.374;6.170;2022-09-09T03:32:04;100480.09;;;15.57;83.16
74372;BME280;62885;51.374;6.170;2022-09-09T03:34:29;100490.44;;;15.62;83.66
74372;BME280;62885;51.374;6.170;2022-09-09T03:36:55;100482.72;;;15.67;82.85
74372;BME280;62885;51.374;6.170;2022-09-09T03:39:20;100484.75;;;15.65;83.02
74372;BME280;62885;51.374;6.170;2022-09-09T03:41:45;100488.09;;;15.67;83.24
74372;BME280;62885;51.374;6.170;2022-09-09T03:44:13;100485.38;;;15.49;84.12
74372;BME280;62885;51.374;6.170;2022-09-09T03:46:38;100488.91;;;15.59;83.42
74372;BME280;62885;51.374;6.170;2022-09-09T03:49:04;100488.28;;;15.66;82.91
74372;BME280;62885;51.374;6.170;2022-09-09T03:51:30;100493.38;;;15.69;83.75
74372;BME280;62885;51.374;6.170;2022-09-09T03:53:55;100494.31;;;15.59;83.99
74372;BME280;62885;51.374;6.170;2022-09-09T03:56:21;100493.44;;;15.59;84.08
74372;BME280;62885;51.374;6.170;2022-09-09T03:58:47;100495.16;;;15.78;82.93
74372;BME280;62885;51.374;6.170;2022-09-09T04:01:13;100498.00;;;15.76;83.04
74372;BME280;62885;51.374;6.170;2022-09-09T04:03:39;100495.44;;;15.75;83.48
74372;BME280;62885;51.374;6.170;2022-09-09T04:06:07;100503.00;;;15.53;84.19
74372;BME280;62885;51.374;6.170;2022-09-09T04:08:33;100502.53;;;15.58;84.45
74372;BME280;62885;51.374;6.170;2022-09-09T04:11:00;100510.56;;;15.68;83.84
74372;BME280;62885;51.374;6.170;2022-09-09T04:13:32;100502.78;;;15.82;82.97
74372;BME280;62885;51.374;6.170;2022-09-09T04:16:01;100501.47;;;15.69;83.92
74372;BME280;62885;51.374;6.170;2022-09-09T04:18:27;100500.47;;;15.87;83.19
74372;BME280;62885;51.374;6.170;2022-09-09T04:20:55;100495.44;;;15.92;82.47
74372;BME280;62885;51.374;6.170;2022-09-09T04:23:23;100498.53;;;15.80;82.35
74372;BME280;62885;51.374;6.170;2022-09-09T04:25:51;100494.69;;;15.82;83.01
74372;BME280;62885;51.374;6.170;2022-09-09T04:28:18;100490.88;;;15.93;82.65
74372;BME280;62885;51.374;6.170;2022-09-09T04:30:44;100493.50;;;15.67;83.46
74372;BME280;62885;51.374;6.170;2022-09-09T04:33:11;100488.09;;;15.85;83.30
74372;BME280;62885;51.374;6.170;2022-09-09T04:35:37;100487.03;;;15.95;82.25
74372;BME280;62885;51.374;6.170;2022-09-09T04:38:03;100482.31;;;15.97;82.54
74372;BME280;62885;51.374;6.170;2022-09-09T04:40:29;100482.00;;;16.00;82.44
74372;BME280;62885;51.374;6.170;2022-09-09T04:42:58;100490.50;;;15.88;83.19
74372;BME280;62885;51.374;6.170;2022-09-09T04:45:24;100485.34;;;15.77;83.49
74372;BME280;62885;51.374;6.170;2022-09-09T04:47:51;100485.84;;;15.98;82.48
74372;BME280;62885;51.374;6.170;2022-09-09T04:50:16;100488.19;;;15.75;83.58
74372;BME280;62885;51.374;6.170;2022-09-09T04:52:41;100478.34;;;15.84;82.93
74372;BME280;62885;51.374;6.170;2022-09-09T04:55:07;100480.63;;;15.79;83.35
74372;BME280;62885;51.374;6.170;2022-09-09T04:57:34;100475.06;;;15.98;82.68
74372;BME280;62885;51.374;6.170;2022-09-09T04:59:59;100481.72;;;15.68;84.01
74372;BME280;62885;51.374;6.170;2022-09-09T05:02:26;100477.00;;;15.88;83.07
74372;BME280;62885;51.374;6.170;2022-09-09T05:04:51;100478.47;;;15.82;83.58
74372;BME280;62885;51.374;6.170;2022-09-09T05:07:17;100479.47;;;15.81;83.44
74372;BME280;62885;51.374;6.170;2022-09-09T05:09:42;100473.97;;;15.91;83.18
74372;BME280;62885;51.374;6.170;2022-09-09T05:12:08;100477.59;;;15.99;82.86
74372;BME280;62885;51.374;6.170;2022-09-09T05:14:33;100464.66;;;15.85;83.13
74372;BME280;62885;51.374;6.170;2022-09-09T05:17:01;100471.94;;;16.11;81.98
74372;BME280;62885;51.374;6.170;2022-09-09T05:19:26;100457.81;;;16.17;81.81
74372;BME280;62885;51.374;6.170;2022-09-09T05:21:55;100465.44;;;16.21;81.95
74372;BME280;62885;51.374;6.170;2022-09-09T05:24:20;100469.44;;;16.43;80.59
74372;BME280;62885;51.374;6.170;2022-09-09T05:26:48;100466.94;;;16.41;80.35
74372;BME280;62885;51.374;6.170;2022-09-09T05:29:13;100474.13;;;16.33;80.83
74372;BME280;62885;51.374;6.170;2022-09-09T05:31:40;100477.25;;;16.20;81.90
74372;BME280;62885;51.374;6.170;2022-09-09T05:34:06;100473.91;;;16.26;81.53
74372;BME280;62885;51.374;6.170;2022-09-09T05:36:31;100472.47;;;16.40;80.15
74372;BME280;62885;51.374;6.170;2022-09-09T05:38:57;100476.97;;;16.31;81.05
74372;BME280;62885;51.374;6.170;2022-09-09T05:41:23;100471.19;;;16.52;79.86
74372;BME280;62885;51.374;6.170;2022-09-09T05:43:48;100470.28;;;16.43;80.28
74372;BME280;62885;51.374;6.170;2022-09-09T05:46:23;100472.97;;;16.61;79.79
74372;BME280;62885;51.374;6.170;2022-09-09T05:48:50;100477.22;;;16.64;79.48
74372;BME280;62885;51.374;6.170;2022-09-09T05:51:27;100479.56;;;17.01;78.15
74372;BME280;62885;51.374;6.170;2022-09-09T05:53:54;100475.59;;;17.29;76.86
74372;BME280;62885;51.374;6.170;2022-09-09T05:56:25;100483.66;;;17.13;77.06
74372;BME280;62885;51.374;6.170;2022-09-09T05:58:51;100485.69;;;17.11;77.43
74372;BME280;62885;51.374;6.170;2022-09-09T06:03:46;100493.97;;;17.09;77.40
74372;BME280;62885;51.374;6.170;2022-09-09T06:06:15;100492.16;;;17.18;77.39
74372;BME280;62885;51.374;6.170;2022-09-09T06:08:43;100495.09;;;17.57;76.12
74372;BME280;62885;51.374;6.170;2022-09-09T06:13:42;100491.75;;;18.44;72.39
74372;BME280;62885;51.374;6.170;2022-09-09T06:16:12;100491.34;;;18.71;71.33
74372;BME280;62885;51.374;6.170;2022-09-09T06:18:39;100494.81;;;19.66;67.71
74372;BME280;62885;51.374;6.170;2022-09-09T06:21:07;100492.72;;;20.51;64.14
74372;BME280;62885;51.374;6.170;2022-09-09T06:23:34;100492.88;;;19.75;66.67
74372;BME280;62885;51.374;6.170;2022-09-09T06:26:06;100498.41;;;19.58;67.29
74372;BME280;62885;51.374;6.170;2022-09-09T06:28:35;100510.19;;;19.51;67.57
74372;BME280;62885;51.374;6.170;2022-09-09T06:31:06;100506.16;;;19.00;69.52
74372;BME280;62885;51.374;6.170;2022-09-09T06:33:34;100501.06;;;18.58;70.40
74372;BME280;62885;51.374;6.170;2022-09-09T06:36:01;100509.22;;;18.25;72.19
74372;BME280;62885;51.374;6.170;2022-09-09T06:38:27;100504.78;;;18.40;71.49
74372;BME280;62885;51.374;6.170;2022-09-09T06:40:53;100504.44;;;18.52;71.07
74372;BME280;62885;51.374;6.170;2022-09-09T06:43:21;100504.06;;;18.71;70.50
74372;BME280;62885;51.374;6.170;2022-09-09T06:46:22;100499.84;;;18.52;71.09
74372;BME280;62885;51.374;6.170;2022-09-09T06:48:48;100503.06;;;18.47;71.52
74372;BME280;62885;51.374;6.170;2022-09-09T06:51:19;100504.59;;;18.50;70.86
74372;BME280;62885;51.374;6.170;2022-09-09T06:53:46;100503.78;;;18.17;71.91
74372;BME280;62885;51.374;6.170;2022-09-09T06:56:19;100510.91;;;18.18;72.41
74372;BME280;62885;51.374;6.170;2022-09-09T06:58:47;100502.25;;;17.82;73.51
74372;BME280;62885;51.374;6.170;2022-09-09T07:01:16;100507.53;;;17.76;74.29
74372;BME280;62885;51.374;6.170;2022-09-09T07:03:45;100505.47;;;17.94;73.16
74372;BME280;62885;51.374;6.170;2022-09-09T07:06:15;100508.38;;;17.76;73.84
74372;BME280;62885;51.374;6.170;2022-09-09T07:08:42;100499.91;;;17.87;73.47
74372;BME280;62885;51.374;6.170;2022-09-09T07:11:08;100499.16;;;17.53;73.98
74372;BME280;62885;51.374;6.170;2022-09-09T07:13:35;100498.38;;;17.77;73.85
74372;BME280;62885;51.374;6.170;2022-09-09T07:16:11;100498.53;;;17.83;73.32
74372;BME280;62885;51.374;6.170;2022-09-09T07:18:39;100496.84;;;18.06;72.80
74372;BME280;62885;51.374;6.170;2022-09-09T07:21:04;100500.25;;;17.92;73.42
74372;BME280;62885;51.374;6.170;2022-09-09T07:23:31;100498.38;;;18.01;73.42
74372;BME280;62885;51.374;6.170;2022-09-09T07:25:57;100495.66;;;18.17;71.85
74372;BME280;62885;51.374;6.170;2022-09-09T07:28:24;100500.78;;;17.88;72.79
74372;BME280;62885;51.374;6.170;2022-09-09T07:30:58;100503.97;;;17.91;72.70
74372;BME280;62885;51.374;6.170;2022-09-09T07:33:25;100507.69;;;18.06;72.50
74372;BME280;62885;51.374;6.170;2022-09-09T07:35:51;100503.13;;;17.91;73.05
74372;BME280;62885;51.374;6.170;2022-09-09T07:38:17;100503.47;;;17.80;74.11
74372;BME280;62885;51.374;6.170;2022-09-09T07:40:44;100506.84;;;18.14;72.05
74372;BME280;62885;51.374;6.170;2022-09-09T07:43:09;100508.84;;;18.36;71.53
74372;BME280;62885;51.374;6.170;2022-09-09T07:45:35;100510.56;;;18.29;71.62
74372;BME280;62885;51.374;6.170;2022-09-09T07:48:01;100507.03;;;18.04;72.80
74372;BME280;62885;51.374;6.170;2022-09-09T07:50:27;100510.75;;;18.03;72.71
74372;BME280;62885;51.374;6.170;2022-09-09T07:52:53;100508.88;;;18.20;71.99
74372;BME280;62885;51.374;6.170;2022-09-09T07:55:22;100513.25;;;18.29;71.26
74372;BME280;62885;51.374;6.170;2022-09-09T07:57:51;100505.31;;;18.20;71.27
74372;BME280;62885;51.374;6.170;2022-09-09T08:00:17;100517.19;;;18.11;71.60
74372;BME280;62885;51.374;6.170;2022-09-09T08:02:43;100503.66;;;18.11;72.07
74372;BME280;62885;51.374;6.170;2022-09-09T08:05:09;100516.66;;;18.23;71.37
74372;BME280;62885;51.374;6.170;2022-09-09T08:07:34;100521.09;;;18.16;71.79
74372;BME280;62885;51.374;6.170;2022-09-09T08:09:59;100517.69;;;18.22;71.07
74372;BME280;62885;51.374;6.170;2022-09-09T08:12:25;100524.28;;;18.36;70.95
74372;BME280;62885;51.374;6.170;2022-09-09T08:14:50;100528.84;;;18.35;69.97
74372;BME280;62885;51.374;6.170;2022-09-09T08:17:16;100521.53;;;18.52;69.82
74372;BME280;62885;51.374;6.170;2022-09-09T08:19:42;100532.41;;;18.68;69.09
74372;BME280;62885;51.374;6.170;2022-09-09T08:22:07;100527.78;;;18.85;68.25
74372;BME280;62885;51.374;6.170;2022-09-09T08:24:33;100526.63;;;18.71;68.61
74372;BME280;62885;51.374;6.170;2022-09-09T08:26:59;100526.94;;;18.76;67.93
74372;BME280;62885;51.374;6.170;2022-09-09T08:29:24;100532.56;;;18.42;68.86
74372;BME280;62885;51.374;6.170;2022-09-09T08:31:51;100535.81;;;18.62;67.92
74372;BME280;62885;51.374;6.170;2022-09-09T08:34:20;100539.66;;;18.76;67.43
74372;BME280;62885;51.374;6.170;2022-09-09T08:36:46;100534.09;;;18.61;67.10
74372;BME280;62885;51.374;6.170;2022-09-09T08:39:14;100537.00;;;18.27;68.19
74372;BME280;62885;51.374;6.170;2022-09-09T08:55:35;100543.09;;;18.62;67.40
74372;BME280;62885;51.374;6.170;2022-09-09T08:58:14;100543.25;;;18.44;67.67
74372;BME280;62885;51.374;6.170;2022-09-09T09:06:26;100549.31;;;18.78;66.35
74372;BME280;62885;51.374;6.170;2022-09-09T09:11:54;100552.13;;;19.09;65.00
74372;BME280;62885;51.374;6.170;2022-09-09T09:14:28;100553.31;;;18.99;64.88
74372;BME280;62885;51.374;6.170;2022-09-09T09:17:00;100552.81;;;18.95;65.09
74372;BME280;62885;51.374;6.170;2022-09-09T09:19:27;100557.09;;;18.90;65.62
74372;BME280;62885;51.374;6.170;2022-09-09T09:25:02;100549.53;;;18.69;65.83
74372;BME280;62885;51.374;6.170;2022-09-09T09:27:36;100558.72;;;19.07;65.05
74372;BME280;62885;51.374;6.170;2022-09-09T09:30:20;100558.56;;;19.08;64.30
74372;BME280;62885;51.374;6.170;2022-09-09T09:35:44;100553.94;;;19.17;63.69
74372;BME280;62885;51.374;6.170;2022-09-09T09:38:28;100561.47;;;19.46;62.91
74372;BME280;62885;51.374;6.170;2022-09-09T09:40:56;100558.47;;;19.33;62.83
74372;BME280;62885;51.374;6.170;2022-09-09T09:43:30;100554.75;;;19.25;62.78
74372;BME280;62885;51.374;6.170;2022-09-09T09:45:59;100558.50;;;19.16;63.37
74372;BME280;62885;51.374;6.170;2022-09-09T09:48:26;100556.38;;;18.96;63.71
74372;BME280;62885;51.374;6.170;2022-09-09T09:51:12;100564.38;;;18.97;63.63
74372;BME280;62885;51.374;6.170;2022-09-09T09:53:40;100572.03;;;18.85;64.22
74372;BME280;62885;51.374;6.170;2022-09-09T09:56:08;100569.97;;;18.87;64.18
74372;BME280;62885;51.374;6.170;2022-09-09T09:58:49;100562.06;;;18.62;65.47
74372;BME280;62885;51.374;6.170;2022-09-09T10:01:22;100560.53;;;18.59;65.50
74372;BME280;62885;51.374;6.170;2022-09-09T10:03:53;100569.00;;;18.80;64.60
74372;BME280;62885;51.374;6.170;2022-09-09T10:06:36;100562.88;;;18.70;64.95
74372;BME280;62885;51.374;6.170;2022-09-09T10:09:04;100566.94;;;18.82;64.88
74372;BME280;62885;51.374;6.170;2022-09-09T10:11:55;100561.28;;;19.08;63.83
74372;BME280;62885;51.374;6.170;2022-09-09T10:14:25;100554.34;;;18.98;63.82
74372;BME280;62885;51.374;6.170;2022-09-09T10:17:12;100554.38;;;18.90;64.54
74372;BME280;62885;51.374;6.170;2022-09-09T10:19:52;100556.00;;;19.15;63.53
74372;BME280;62885;51.374;6.170;2022-09-09T10:22:25;100550.38;;;19.16;63.65
74372;BME280;62885;51.374;6.170;2022-09-09T10:27:45;100555.91;;;19.31;63.14
74372;BME280;62885;51.374;6.170;2022-09-09T10:30:19;100551.81;;;19.35;63.26
74372;BME280;62885;51.374;6.170;2022-09-09T10:33:09;100560.31;;;19.32;63.52
74372;BME280;62885;51.374;6.170;2022-09-09T10:35:52;100564.22;;;18.91;64.98
74372;BME280;62885;51.374;6.170;2022-09-09T10:38:31;100558.34;;;19.18;64.27
74372;BME280;62885;51.374;6.170;2022-09-09T10:41:26;100561.91;;;19.10;64.22
74372;BME280;62885;51.374;6.170;2022-09-09T10:44:17;100557.00;;;19.14;64.16
74372;BME280;62885;51.374;6.170;2022-09-09T10:57:27;100580.81;;;18.87;69.31
74372;BME280;62885;51.374;6.170;2022-09-09T10:59:59;100580.69;;;18.40;72.94
74372;BME280;62885;51.374;6.170;2022-09-09T11:02:31;100570.16;;;17.81;75.82
74372;BME280;62885;51.374;6.170;2022-09-09T11:05:02;100567.66;;;18.03;75.80
74372;BME280;62885;51.374;6.170;2022-09-09T11:07:40;100562.41;;;18.34;75.12
74372;BME280;62885;51.374;6.170;2022-09-09T11:13:24;100555.91;;;18.76;74.60
74372;BME280;62885;51.374;6.170;2022-09-09T11:15:56;100563.34;;;18.98;72.67
74372;BME280;62885;51.374;6.170;2022-09-09T11:18:23;100559.31;;;18.78;72.61
74372;BME280;62885;51.374;6.170;2022-09-09T11:20:52;100570.47;;;18.91;71.69
74372;BME280;62885;51.374;6.170;2022-09-09T11:23:27;100564.25;;;18.74;72.74
74372;BME280;62885;51.374;6.170;2022-09-09T11:25:57;100559.53;;;18.68;72.63
74372;BME280;62885;51.374;6.170;2022-09-09T11:28:32;100565.59;;;18.54;72.41
74372;BME280;62885;51.374;6.170;2022-09-09T11:40:30;100567.78;;;17.70;78.18
74372;BME280;62885;51.374;6.170;2022-09-09T11:42:36;100571.22;;;17.54;79.27
74372;BME280;62885;51.374;6.170;2022-09-09T11:45:20;100570.88;;;17.49;80.00
74372;BME280;62885;51.374;6.170;2022-09-09T11:47:58;100570.56;;;17.52;80.12
74372;BME280;62885;51.374;6.170;2022-09-09T11:52:49;100584.06;;;17.44;80.11
74372;BME280;62885;51.374;6.170;2022-09-09T11:55:26;100581.44;;;17.26;81.62
74372;BME280;62885;51.374;6.170;2022-09-09T11:58:02;100589.50;;;17.10;82.80
74372;BME280;62885;51.374;6.170;2022-09-09T12:00:54;100586.72;;;17.36;81.21
74372;BME280;62885;51.374;6.170;2022-09-09T12:06:27;100580.03;;;17.06;82.65
74372;BME280;62885;51.374;6.170;2022-09-09T12:09:06;100572.63;;;17.16;82.71
74372;BME280;62885;51.374;6.170;2022-09-09T12:11:33;100571.19;;;17.38;82.42
74372;BME280;62885;51.374;6.170;2022-09-09T12:14:00;100564.56;;;17.74;81.52
74372;BME280;62885;51.374;6.170;2022-09-09T12:16:34;100570.66;;;17.84;81.13
74372;BME280;62885;51.374;6.170;2022-09-09T12:19:21;100566.97;;;18.10;80.43
74372;BME280;62885;51.374;6.170;2022-09-09T12:24:43;100561.03;;;18.14;79.96
74372;BME280;62885;51.374;6.170;2022-09-09T12:27:20;100572.22;;;18.43;78.85
74372;BME280;62885;51.374;6.170;2022-09-09T12:30:31;100568.84;;;18.50;78.14
74372;BME280;62885;51.374;6.170;2022-09-09T12:33:01;100566.28;;;18.32;78.68
74372;BME280;62885;51.374;6.170;2022-09-09T12:35:27;100564.09;;;18.52;77.23
74372;BME280;62885;51.374;6.170;2022-09-09T12:37:56;100557.81;;;18.51;77.71
74372;BME280;62885;51.374;6.170;2022-09-09T12:42:51;100559.63;;;18.83;74.66
74372;BME280;62885;51.374;6.170;2022-09-09T12:45:25;100557.56;;;18.93;74.79
74372;BME280;62885;51.374;6.170;2022-09-09T12:50:26;100547.56;;;18.94;76.01
74372;BME280;62885;51.374;6.170;2022-09-09T12:52:55;100552.28;;;19.08;74.63
74372;BME280;62885;51.374;6.170;2022-09-09T12:55:25;100547.06;;;18.98;74.69
74372;BME280;62885;51.374;6.170;2022-09-09T12:57:53;100540.41;;;19.09;74.29
74372;BME280;62885;51.374;6.170;2022-09-09T13:00:24;100538.41;;;19.34;73.98
74372;BME280;62885;51.374;6.170;2022-09-09T13:02:52;100544.50;;;19.44;72.90
74372;BME280;62885;51.374;6.170;2022-09-09T13:05:24;100538.03;;;19.06;74.57
74372;BME280;62885;51.374;6.170;2022-09-09T13:07:51;100546.88;;;19.47;72.75
74372;BME280;62885;51.374;6.170;2022-09-09T13:10:28;100537.34;;;19.51;72.73
74372;BME280;62885;51.374;6.170;2022-09-09T13:12:54;100537.84;;;19.54;72.95
74372;BME280;62885;51.374;6.170;2022-09-09T13:15:23;100533.91;;;19.57;73.20
74372;BME280;62885;51.374;6.170;2022-09-09T13:18:01;100517.66;;;19.80;72.07
74372;BME280;62885;51.374;6.170;2022-09-09T13:20:30;100523.69;;;19.90;71.65
74372;BME280;62885;51.374;6.170;2022-09-09T13:22:56;100521.44;;;19.93;70.91
74372;BME280;62885;51.374;6.170;2022-09-09T13:25:25;100521.53;;;19.54;68.75
74372;BME280;62885;51.374;6.170;2022-09-09T13:28:02;100517.59;;;19.26;69.24
74372;BME280;62885;51.374;6.170;2022-09-09T13:30:31;100518.94;;;19.22;68.91
74372;BME280;62885;51.374;6.170;2022-09-09T13:33:31;100511.09;;;19.04;69.63
74372;BME280;62885;51.374;6.170;2022-09-09T13:35:57;100512.97;;;19.04;69.80
74372;BME280;62885;51.374;6.170;2022-09-09T13:38:25;100506.69;;;18.95;70.03
74372;BME280;62885;51.374;6.170;2022-09-09T13:40:59;100514.56;;;19.21;69.57
74372;BME280;62885;51.374;6.170;2022-09-09T13:43:34;100513.09;;;19.41;70.21
74372;BME280;62885;51.374;6.170;2022-09-09T13:46:04;100518.63;;;19.17;69.64
74372;BME280;62885;51.374;6.170;2022-09-09T13:48:31;100524.00;;;18.94;70.70
74372;BME280;62885;51.374;6.170;2022-09-09T13:51:02;100523.69;;;18.89;70.44
74372;BME280;62885;51.374;6.170;2022-09-09T13:53:30;100525.53;;;18.88;69.90
74372;BME280;62885;51.374;6.170;2022-09-09T13:55:56;100528.25;;;18.97;69.97
74372;BME280;62885;51.374;6.170;2022-09-09T13:58:22;100535.75;;;18.86;70.63
74372;BME280;62885;51.374;6.170;2022-09-09T14:00:49;100539.25;;;18.95;70.92
74372;BME280;62885;51.374;6.170;2022-09-09T14:03:15;100525.44;;;18.74;72.28
74372;BME280;62885;51.374;6.170;2022-09-09T14:05:41;100525.97;;;18.37;74.01
74372;BME280;62885;51.374;6.170;2022-09-09T14:08:15;100523.28;;;17.96;77.39
74372;BME280;62885;51.374;6.170;2022-09-09T14:10:41;100526.16;;;17.95;77.55
74372;BME280;62885;51.374;6.170;2022-09-09T14:13:06;100514.81;;;17.99;77.36
74372;BME280;62885;51.374;6.170;2022-09-09T14:15:33;100513.78;;;18.09;76.89
74372;BME280;62885;51.374;6.170;2022-09-09T14:17:58;100516.66;;;18.07;76.49
74372;BME280;62885;51.374;6.170;2022-09-09T14:20:24;100513.78;;;18.33;76.46
74372;BME280;62885;51.374;6.170;2022-09-09T14:22:49;100513.91;;;18.47;75.96
74372;BME280;62885;51.374;6.170;2022-09-09T14:25:14;100515.81;;;18.63;74.93
74372;BME280;62885;51.374;6.170;2022-09-09T14:27:40;100513.38;;;18.76;74.97
74372;BME280;62885;51.374;6.170;2022-09-09T14:30:06;100512.50;;;18.84;74.17
74372;BME280;62885;51.374;6.170;2022-09-09T14:32:32;100506.38;;;18.98;73.60
74372;BME280;62885;51.374;6.170;2022-09-09T14:34:58;100519.09;;;18.90;73.79
74372;BME280;62885;51.374;6.170;2022-09-09T14:37:23;100520.56;;;19.08;73.26
74372;BME280;62885;51.374;6.170;2022-09-09T14:39:49;100519.22;;;19.04;72.95
74372;BME280;62885;51.374;6.170;2022-09-09T14:42:16;100511.59;;;19.00;72.70
74372;BME280;62885;51.374;6.170;2022-09-09T14:44:41;100521.03;;;19.20;72.49
74372;BME280;62885;51.374;6.170;2022-09-09T14:47:07;100512.78;;;19.36;72.02
74372;BME280;62885;51.374;6.170;2022-09-09T14:49:39;100513.22;;;19.17;72.91
74372;BME280;62885;51.374;6.170;2022-09-09T14:52:04;100509.66;;;19.16;72.52
74372;BME280;62885;51.374;6.170;2022-09-09T14:54:30;100505.72;;;19.27;72.51
74372;BME280;62885;51.374;6.170;2022-09-09T14:56:56;100506.13;;;19.16;72.67